createdAt,value
2019-03-03T00:00:52.192Z,100650.06
2019-03-03T00:03:21.884Z,100644.95
2019-03-03T00:05:50.561Z,100640.08
2019-03-03T00:08:19.290Z,100640.08
2019-03-03T00:10:47.935Z,100640.11
2019-03-03T00:13:16.597Z,100638.18
2019-03-03T00:15:45.253Z,100640.56
2019-03-03T00:18:13.901Z,100633.84
2019-03-03T00:20:42.776Z,100638.18
2019-03-03T00:23:11.424Z,100631.12
2019-03-03T00:25:40.093Z,100618.98
2019-03-03T00:28:08.781Z,100614.09
2019-03-03T00:30:37.517Z,100602.81
2019-03-03T00:33:06.310Z,100595.00
2019-03-03T00:35:35.065Z,100604.43
2019-03-03T00:38:14.399Z,100596.88
2019-03-03T00:40:56.915Z,100587.94
2019-03-03T00:43:30.186Z,100586.28
2019-03-03T00:46:09.293Z,100585.20
2019-03-03T00:48:45.554Z,100591.66
2019-03-03T00:51:28.153Z,100579.48
2019-03-03T00:54:01.433Z,100582.23
2019-03-03T00:56:46.939Z,100574.95
2019-03-03T00:59:20.051Z,100568.48
2019-03-03T01:01:56.337Z,100558.25
2019-03-03T01:04:41.549Z,100553.08
2019-03-03T01:07:12.016Z,100556.61
2019-03-03T01:09:42.293Z,100554.55
2019-03-03T01:12:29.731Z,100554.55
2019-03-03T01:15:02.701Z,100545.58
2019-03-03T01:17:32.979Z,100541.51
2019-03-03T01:20:06.439Z,100539.87
2019-03-03T01:22:36.745Z,100538.60
2019-03-03T01:25:07.246Z,100536.73
2019-03-03T01:27:36.060Z,100529.41
2019-03-03T01:30:11.247Z,100522.40
2019-03-03T01:32:39.945Z,100524.20
2019-03-03T01:35:11.248Z,100515.05
2019-03-03T01:37:40.081Z,100516.71
2019-03-03T01:40:11.180Z,100514.77
2019-03-03T01:42:39.884Z,100514.77
2019-03-03T01:45:11.499Z,100492.44
2019-03-03T01:47:40.252Z,100518.35
2019-03-03T01:50:11.272Z,100503.76
2019-03-03T01:52:39.947Z,100512.39
2019-03-03T01:55:11.510Z,100491.34
2019-03-03T01:57:40.311Z,100496.55
2019-03-03T02:00:26.739Z,100492.82
2019-03-03T02:02:57.192Z,100482.52
2019-03-03T02:05:26.050Z,100474.74
2019-03-03T02:07:54.811Z,100473.98
2019-03-03T02:10:24.966Z,100468.33
2019-03-03T02:12:53.822Z,100471.22
2019-03-03T02:15:22.470Z,100445.62
2019-03-03T02:17:51.311Z,100448.41
2019-03-03T02:20:20.094Z,100442.47
2019-03-03T02:22:48.806Z,100449.97
2019-03-03T02:25:17.590Z,100444.05
2019-03-03T02:27:46.330Z,100442.19
2019-03-03T02:30:18.475Z,100445.15
2019-03-03T02:32:48.368Z,100433.02
2019-03-03T02:35:17.162Z,100434.95
2019-03-03T02:37:46.262Z,100433.61
2019-03-03T02:40:19.453Z,100422.51
2019-03-03T02:42:48.105Z,100401.19
2019-03-03T02:45:18.900Z,100406.05
2019-03-03T02:47:47.588Z,100397.72
2019-03-03T02:50:16.734Z,100359.41
2019-03-03T02:52:45.499Z,100415.23
2019-03-03T02:55:18.495Z,100415.81
2019-03-03T02:57:47.265Z,100420.11
2019-03-03T03:00:23.473Z,100414.94
2019-03-03T03:02:56.963Z,100409.30
2019-03-03T03:05:28.775Z,100397.67
2019-03-03T03:08:15.024Z,100404.19
2019-03-03T03:11:01.509Z,100399.03
2019-03-03T03:13:47.801Z,100394.20
2019-03-03T03:16:20.854Z,100377.17
2019-03-03T03:18:51.141Z,100397.16
2019-03-03T03:21:24.400Z,100365.55
2019-03-03T03:24:00.852Z,100375.53
2019-03-03T03:26:31.101Z,100389.02
2019-03-03T03:29:10.449Z,100380.94
2019-03-03T03:31:40.776Z,100374.16
2019-03-03T03:34:11.102Z,100366.59
2019-03-03T03:36:56.449Z,100363.06
2019-03-03T03:39:26.771Z,100372.23
2019-03-03T03:42:00.200Z,100366.77
2019-03-03T03:44:36.280Z,100358.93
2019-03-03T03:47:06.637Z,100356.48
2019-03-03T03:49:45.693Z,100328.41
2019-03-03T03:52:18.817Z,100347.59
2019-03-03T03:54:58.031Z,100342.45
2019-03-03T03:57:44.577Z,100348.13
2019-03-03T04:00:30.787Z,100346.16
2019-03-03T04:03:01.162Z,100337.56
2019-03-03T04:05:47.743Z,100336.98
2019-03-03T04:08:23.860Z,100336.70
2019-03-03T04:10:54.160Z,100337.23
2019-03-03T04:13:36.632Z,100326.44
2019-03-03T04:16:23.349Z,100331.54
2019-03-03T04:19:09.831Z,100323.18
2019-03-03T04:21:51.710Z,100305.34
2019-03-03T04:24:25.016Z,100304.28
2019-03-03T04:27:11.578Z,100314.73
2019-03-03T04:29:41.863Z,100313.61
2019-03-03T04:32:12.098Z,100304.16
2019-03-03T04:34:58.682Z,100307.44
2019-03-03T04:37:34.675Z,100309.86
2019-03-03T04:40:21.206Z,100311.48
2019-03-03T04:42:57.505Z,100306.91
2019-03-03T04:45:30.501Z,100306.61
2019-03-03T04:48:06.426Z,100307.66
2019-03-03T04:50:42.742Z,100304.66
2019-03-03T04:53:12.969Z,100283.05
2019-03-03T04:55:45.910Z,100303.83
2019-03-03T04:58:25.474Z,100299.76
2019-03-03T05:00:55.910Z,100282.75
2019-03-03T05:03:32.025Z,100290.33
2019-03-03T05:06:18.445Z,100296.27
2019-03-03T05:08:57.597Z,100288.97
2019-03-03T05:12:14.461Z,100280.08
2019-03-03T05:14:44.916Z,100287.34
2019-03-03T05:17:21.327Z,100298.06
2019-03-03T05:19:51.684Z,100289.19
2019-03-03T05:22:20.324Z,100280.30
2019-03-03T05:24:48.847Z,100288.09
2019-03-03T05:27:17.482Z,100288.92
2019-03-03T05:29:46.339Z,100279.73
2019-03-03T05:32:15.065Z,100276.52
2019-03-03T05:34:43.771Z,100277.07
2019-03-03T05:37:12.548Z,100276.23
2019-03-03T05:39:41.239Z,100284.05
2019-03-03T05:42:09.888Z,100291.84
2019-03-03T05:44:38.713Z,100282.16
2019-03-03T05:47:07.418Z,100274.59
2019-03-03T05:49:35.966Z,100267.63
2019-03-03T05:52:05.444Z,100274.37
2019-03-03T05:54:34.076Z,100267.92
2019-03-03T05:57:02.879Z,100263.06
2019-03-03T05:59:31.359Z,100267.92
2019-03-03T06:02:00.086Z,100270.91
2019-03-03T06:04:28.771Z,100274.98
2019-03-03T06:06:57.341Z,100272.81
2019-03-03T06:09:25.898Z,100275.25
2019-03-03T06:11:54.599Z,100284.17
2019-03-03T06:14:23.331Z,100269.86
2019-03-03T06:16:51.992Z,100278.20
2019-03-03T06:19:20.827Z,100264.75
2019-03-03T06:21:49.604Z,100278.78
2019-03-03T06:24:18.359Z,100269.62
2019-03-03T06:26:53.089Z,100275.27
2019-03-03T06:29:23.008Z,100263.09
2019-03-03T06:31:51.778Z,100264.45
2019-03-03T06:34:20.418Z,100256.09
2019-03-03T06:36:49.054Z,100265.81
2019-03-03T06:39:17.722Z,100267.41
2019-03-03T06:41:46.495Z,100262.53
2019-03-03T06:44:15.146Z,100264.98
2019-03-03T06:46:43.939Z,100264.18
2019-03-03T06:49:12.546Z,100269.86
2019-03-03T06:51:41.209Z,100270.41
2019-03-03T06:54:09.846Z,100272.32
2019-03-03T06:56:38.483Z,100257.73
2019-03-03T06:59:07.237Z,100264.48
2019-03-03T07:01:35.965Z,100252.90
2019-03-03T07:04:05.309Z,100260.47
2019-03-03T07:06:33.946Z,100265.05
2019-03-03T07:09:02.781Z,100264.77
2019-03-03T07:11:31.543Z,100262.34
2019-03-03T07:14:00.383Z,100277.69
2019-03-03T07:16:29.138Z,100246.11
2019-03-03T07:18:57.791Z,100268.23
2019-03-03T07:21:26.435Z,100276.39
2019-03-03T07:23:55.094Z,100277.42
2019-03-03T07:26:24.078Z,100277.38
2019-03-03T07:28:53.253Z,100277.90
2019-03-03T07:31:22.221Z,100285.70
2019-03-03T07:33:53.526Z,100288.40
2019-03-03T07:36:22.372Z,100278.94
2019-03-03T07:38:51.255Z,100278.72
2019-03-03T07:41:22.622Z,100287.70
2019-03-03T07:43:56.322Z,100281.95
2019-03-03T07:46:25.197Z,100291.41
2019-03-03T07:48:54.064Z,100276.55
2019-03-03T07:51:23.006Z,100282.23
2019-03-03T07:53:51.948Z,100286.58
2019-03-03T07:56:20.720Z,100299.80
2019-03-03T07:58:49.496Z,100300.63
2019-03-03T08:01:18.418Z,100299.04
2019-03-03T08:03:47.082Z,100293.92
2019-03-03T08:06:15.722Z,100293.64
2019-03-03T08:08:44.600Z,100295.02
2019-03-03T08:11:13.380Z,100299.33
2019-03-03T08:13:42.140Z,100283.42
2019-03-03T08:16:11.027Z,100292.08
2019-03-03T08:18:39.788Z,100283.73
2019-03-03T08:21:08.570Z,100284.55
2019-03-03T08:23:37.568Z,100287.25
2019-03-03T08:26:06.567Z,100277.81
2019-03-03T08:28:37.202Z,100288.89
2019-03-03T08:31:06.177Z,100289.97
2019-03-03T08:33:34.873Z,100285.17
2019-03-03T08:36:04.938Z,100292.75
2019-03-03T08:38:34.040Z,100286.53
2019-03-03T08:41:06.024Z,100293.81
2019-03-03T08:43:39.465Z,100295.45
2019-03-03T08:46:26.003Z,100289.48
2019-03-03T08:48:59.439Z,100292.47
2019-03-03T08:51:36.327Z,100288.95
2019-03-03T08:54:24.902Z,100279.44
2019-03-03T08:57:11.652Z,100283.82
2019-03-03T08:59:59.464Z,100274.08
2019-03-03T09:02:54.348Z,100284.31
2019-03-03T09:05:32.558Z,100275.12
2019-03-03T09:08:09.354Z,100278.64
2019-03-03T09:10:48.972Z,100279.77
2019-03-03T09:13:28.252Z,100285.70
2019-03-03T09:16:05.038Z,100284.89
2019-03-03T09:18:54.887Z,100264.37
2019-03-03T09:21:25.465Z,100288.16
2019-03-03T09:23:55.859Z,100279.48
2019-03-03T09:26:41.277Z,100287.59
2019-03-03T09:29:29.966Z,100288.41
2019-03-03T09:32:16.682Z,100287.88
2019-03-03T09:34:46.978Z,100271.95
2019-03-03T09:37:33.538Z,100283.84
2019-03-03T09:40:09.533Z,100286.00
2019-03-03T09:42:35.858Z,100276.55
2019-03-03T09:45:15.939Z,100274.67
2019-03-03T09:47:49.239Z,100270.37
2019-03-03T09:50:34.719Z,100271.44
2019-03-03T09:53:04.987Z,100282.28
2019-03-03T09:55:35.445Z,100277.41
2019-03-03T09:58:22.828Z,100273.36
2019-03-03T10:01:11.369Z,100274.43
2019-03-03T10:03:58.031Z,100268.77
2019-03-03T10:06:40.342Z,100266.89
2019-03-03T10:09:25.892Z,100260.42
2019-03-03T10:11:56.231Z,100268.25
2019-03-03T10:14:26.539Z,100265.01
2019-03-03T10:16:56.830Z,100268.25
2019-03-03T10:19:27.251Z,100253.66
2019-03-03T10:21:57.552Z,100265.30
2019-03-03T10:24:46.087Z,100268.81
2019-03-03T10:27:22.179Z,100258.82
2019-03-03T10:29:52.685Z,100256.91
2019-03-03T10:32:39.380Z,100269.88
2019-03-03T10:35:25.695Z,100270.70
2019-03-03T10:37:58.664Z,100252.34
2019-03-03T10:40:35.041Z,100265.58
2019-03-03T10:43:05.359Z,100253.44
2019-03-03T10:45:53.589Z,100259.66
2019-03-03T10:48:33.009Z,100250.98
2019-03-03T10:51:09.433Z,100239.39
2019-03-03T10:53:39.729Z,100252.88
2019-03-03T10:56:21.517Z,100248.56
2019-03-03T10:59:06.685Z,100230.18
2019-03-03T11:01:53.250Z,100239.11
2019-03-03T11:04:23.568Z,100237.22
2019-03-03T11:06:53.858Z,100231.53
2019-03-03T11:09:42.331Z,100232.63
2019-03-03T11:12:12.849Z,100169.35
2019-03-03T11:14:52.077Z,100219.12
2019-03-03T11:17:31.264Z,100215.58
2019-03-03T11:20:04.621Z,100168.80
2019-03-03T11:22:37.846Z,100223.45
2019-03-03T11:25:26.246Z,100212.08
2019-03-03T11:28:02.318Z,100215.06
2019-03-03T11:30:42.351Z,100216.12
2019-03-03T11:33:17.440Z,100204.48
2019-03-03T11:35:47.951Z,100200.15
2019-03-03T11:38:28.656Z,100187.94
2019-03-03T11:41:05.176Z,100191.72
2019-03-03T11:43:38.285Z,100195.52
2019-03-03T11:46:27.013Z,100199.84
2019-03-03T11:48:57.412Z,100185.79
2019-03-03T11:51:39.880Z,100197.44
2019-03-03T11:54:28.619Z,100174.97
2019-03-03T11:57:15.275Z,100169.81
2019-03-03T11:59:45.729Z,100176.30
2019-03-03T12:02:24.998Z,100163.85
2019-03-03T12:05:02.025Z,100179.27
2019-03-03T12:07:32.425Z,100153.28
2019-03-03T12:10:21.145Z,100160.06
2019-03-03T12:13:03.245Z,100150.59
2019-03-03T12:15:51.669Z,100157.88
2019-03-03T12:18:22.010Z,100153.55
2019-03-03T12:20:52.321Z,100150.87
2019-03-03T12:23:38.150Z,100159.25
2019-03-03T12:26:08.447Z,100149.77
2019-03-03T12:28:47.626Z,100145.72
2019-03-03T12:31:34.931Z,100150.58
2019-03-03T12:34:19.901Z,100147.05
2019-03-03T12:36:54.181Z,100136.22
2019-03-03T12:39:42.772Z,100138.14
2019-03-03T12:42:13.867Z,100136.20
2019-03-03T12:44:47.201Z,100122.11
2019-03-03T12:47:20.733Z,100125.33
2019-03-03T12:50:00.221Z,100124.02
2019-03-03T12:52:40.015Z,100125.09
2019-03-03T12:55:14.012Z,100126.22
2019-03-03T12:57:48.287Z,100129.75
2019-03-03T13:00:20.225Z,100115.37
2019-03-03T13:02:56.833Z,100112.12
2019-03-03T13:05:43.993Z,100109.70
2019-03-03T13:08:20.340Z,100108.07
2019-03-03T13:11:02.847Z,100114.02
2019-03-03T13:13:36.888Z,100110.20
2019-03-03T13:16:23.908Z,100108.05
2019-03-03T13:19:09.448Z,100103.72
2019-03-03T13:21:48.877Z,100097.78
2019-03-03T13:24:22.118Z,100095.05
2019-03-03T13:26:58.682Z,100098.56
2019-03-03T13:29:41.224Z,100098.28
2019-03-03T13:32:24.242Z,100089.35
2019-03-03T13:35:10.916Z,100097.78
2019-03-03T13:37:41.710Z,100096.14
2019-03-03T13:40:28.445Z,100096.67
2019-03-03T13:43:00.531Z,100096.64
2019-03-03T13:45:31.792Z,100082.00
2019-03-03T13:48:01.292Z,100095.53
2019-03-03T13:50:30.526Z,100084.44
2019-03-03T13:52:59.491Z,100078.20
2019-03-03T13:55:28.844Z,100069.48
2019-03-03T13:57:58.052Z,100067.57
2019-03-03T14:00:27.357Z,100045.97
2019-03-03T14:02:56.742Z,100070.81
2019-03-03T14:05:25.936Z,100072.19
2019-03-03T14:07:54.947Z,100068.96
2019-03-03T14:10:24.273Z,100060.63
2019-03-03T14:12:53.777Z,100063.89
2019-03-03T14:15:23.325Z,100058.22
2019-03-03T14:17:52.461Z,100049.84
2019-03-03T14:20:25.630Z,100059.61
2019-03-03T14:22:55.554Z,100042.27
2019-03-03T14:25:24.900Z,100037.70
2019-03-03T14:27:54.209Z,100037.44
2019-03-03T14:30:25.883Z,100028.50
2019-03-03T14:32:54.830Z,100034.43
2019-03-03T14:35:23.836Z,100030.37
2019-03-03T14:37:53.025Z,100027.95
2019-03-03T14:40:23.091Z,100018.47
2019-03-03T14:42:52.394Z,100015.53
2019-03-03T14:45:21.871Z,100015.01
2019-03-03T14:47:50.833Z,99997.41
2019-03-03T14:50:21.341Z,100002.29
2019-03-03T14:52:56.806Z,100010.45
2019-03-03T14:55:26.008Z,100002.87
2019-03-03T14:57:55.145Z,99988.25
2019-03-03T15:00:30.670Z,99981.76
2019-03-03T15:03:02.089Z,99984.74
2019-03-03T15:05:31.423Z,99991.23
2019-03-03T15:08:00.185Z,99976.13
2019-03-03T15:10:29.257Z,99976.95
2019-03-03T15:12:58.310Z,99980.19
2019-03-03T15:15:29.986Z,99972.34
2019-03-03T15:17:59.317Z,99975.85
2019-03-03T15:20:29.197Z,99926.48
2019-03-03T15:22:58.292Z,99961.23
2019-03-03T15:25:27.777Z,99959.90
2019-03-03T15:27:56.788Z,99960.45
2019-03-03T15:30:26.143Z,99950.98
2019-03-03T15:32:55.268Z,99947.24
2019-03-03T15:35:24.510Z,99944.50
2019-03-03T15:37:55.692Z,99905.92
2019-03-03T15:40:29.520Z,99940.74
2019-03-03T15:42:58.745Z,99928.28
2019-03-03T15:45:31.114Z,99936.42
2019-03-03T15:48:00.286Z,99930.73
2019-03-03T15:50:29.667Z,99929.92
2019-03-03T15:52:58.968Z,99917.48
2019-03-03T15:55:45.391Z,99915.86
2019-03-03T15:58:14.978Z,99945.58
2019-03-03T16:00:50.812Z,99919.91
2019-03-03T16:03:20.237Z,99914.23
2019-03-03T16:05:49.681Z,99882.30
2019-03-03T16:08:20.860Z,99905.85
2019-03-03T16:10:50.571Z,99899.33
2019-03-03T16:13:20.059Z,99894.20
2019-03-03T16:15:51.709Z,99904.19
2019-03-03T16:18:20.672Z,99889.55
2019-03-03T16:20:49.799Z,99889.58
2019-03-03T16:23:19.078Z,99894.22
2019-03-03T16:25:47.960Z,99885.84
2019-03-03T16:28:17.418Z,99886.42
2019-03-03T16:30:46.647Z,99885.33
2019-03-03T16:33:20.455Z,99872.63
2019-03-03T16:35:49.097Z,99884.80
2019-03-03T16:38:24.280Z,99863.70
2019-03-03T16:40:52.966Z,99876.45
2019-03-03T16:43:21.918Z,99870.48
2019-03-03T16:45:53.546Z,99861.30
2019-03-03T16:48:23.870Z,99862.93
2019-03-03T16:50:54.287Z,99839.38
2019-03-03T16:53:31.976Z,99840.14
2019-03-03T16:56:00.219Z,99852.33
2019-03-03T16:58:30.955Z,99851.24
2019-03-03T17:01:03.581Z,99848.31
2019-03-03T17:03:32.907Z,99845.50
2019-03-03T17:06:01.765Z,99842.82
2019-03-03T17:08:30.458Z,99846.88
2019-03-03T17:10:59.365Z,99831.98
2019-03-03T17:13:41.662Z,99839.53
2019-03-03T17:16:10.380Z,99824.16
2019-03-03T17:18:39.393Z,99811.37
2019-03-03T17:21:08.010Z,99830.28
2019-03-03T17:23:36.634Z,99829.45
2019-03-03T17:26:05.359Z,99830.80
2019-03-03T17:28:34.013Z,99830.27
2019-03-03T17:31:02.812Z,99832.63
2019-03-03T17:33:31.551Z,99812.58
2019-03-03T17:36:00.225Z,99830.16
2019-03-03T17:38:35.281Z,99817.97
2019-03-03T17:41:04.055Z,99816.39
2019-03-03T17:43:32.776Z,99817.47
2019-03-03T17:46:21.024Z,99820.67
2019-03-03T17:48:51.879Z,99811.25
2019-03-03T17:51:20.798Z,99803.72
2019-03-03T17:53:49.445Z,99808.27
2019-03-03T17:56:18.075Z,99798.02
2019-03-03T17:58:46.951Z,99798.36
2019-03-03T18:01:15.653Z,99792.70
2019-03-03T18:03:44.299Z,99787.22
2019-03-03T18:06:12.975Z,99790.20
2019-03-03T18:08:41.608Z,99784.34
2019-03-03T18:11:10.523Z,99778.83
2019-03-03T18:13:39.183Z,99778.61
2019-03-03T18:16:07.852Z,99779.34
2019-03-03T18:18:36.570Z,99773.44
2019-03-03T18:21:05.329Z,99761.48
2019-03-03T18:23:34.075Z,99714.38
2019-03-03T18:26:02.828Z,99766.90
2019-03-03T18:28:31.563Z,99757.42
2019-03-03T18:31:00.307Z,99760.59
2019-03-03T18:33:28.988Z,99752.50
2019-03-03T18:35:57.702Z,99747.81
2019-03-03T18:38:27.019Z,99738.39
2019-03-03T18:40:55.781Z,99742.09
2019-03-03T18:43:24.535Z,99730.28
2019-03-03T18:45:53.255Z,99739.93
2019-03-03T18:48:21.959Z,99746.25
2019-03-03T18:50:50.724Z,99715.84
2019-03-03T18:53:19.442Z,99712.05
2019-03-03T18:55:48.106Z,99710.90
2019-03-03T18:58:16.767Z,99706.94
2019-03-03T19:00:45.728Z,99701.43
2019-03-03T19:03:14.457Z,99703.63
2019-03-03T19:05:43.223Z,99690.33
2019-03-03T19:08:12.059Z,99690.70
2019-03-03T19:10:41.911Z,99687.48
2019-03-03T19:13:10.747Z,99692.29
2019-03-03T19:15:39.495Z,99677.98
2019-03-03T19:18:08.209Z,99674.42
2019-03-03T19:20:36.935Z,99663.26
2019-03-03T19:23:05.700Z,99672.66
2019-03-03T19:25:35.577Z,99656.19
2019-03-03T19:28:04.900Z,99651.93
2019-03-03T19:30:33.908Z,99641.91
2019-03-03T19:33:11.450Z,99628.11
2019-03-03T19:35:41.568Z,99648.14
2019-03-03T19:38:17.923Z,99630.27
2019-03-03T19:40:47.508Z,99628.03
2019-03-03T19:43:16.588Z,99628.00
2019-03-03T19:45:51.919Z,99632.44
2019-03-03T19:48:21.005Z,99623.94
2019-03-03T19:50:50.335Z,99611.75
2019-03-03T19:53:19.289Z,99599.34
2019-03-03T19:55:48.510Z,99608.42
2019-03-03T19:58:17.417Z,99598.75
2019-03-03T20:00:46.203Z,99600.11
2019-03-03T20:03:15.094Z,99594.70
2019-03-03T20:05:44.844Z,99574.84
2019-03-03T20:08:13.683Z,99573.44
2019-03-03T20:10:42.624Z,99559.45
2019-03-03T20:13:11.644Z,99572.59
2019-03-03T20:15:40.672Z,99570.38
2019-03-03T20:18:12.720Z,99561.26
2019-03-03T20:20:41.680Z,99556.61
2019-03-03T20:23:14.039Z,99548.91
2019-03-03T20:25:44.989Z,99549.62
2019-03-03T20:28:13.816Z,99537.89
2019-03-03T20:30:43.848Z,99518.48
2019-03-03T20:33:12.563Z,99515.77
2019-03-03T20:35:41.951Z,99507.88
2019-03-03T20:38:10.873Z,99524.44
2019-03-03T20:40:39.554Z,99504.05
2019-03-03T20:43:08.363Z,99511.70
2019-03-03T20:45:37.308Z,99493.09
2019-03-03T20:48:07.837Z,99477.59
2019-03-03T20:50:36.809Z,99494.38
2019-03-03T20:53:05.781Z,99451.77
2019-03-03T20:55:34.435Z,99490.14
2019-03-03T20:58:03.227Z,99485.36
2019-03-03T21:00:35.003Z,99470.55
2019-03-03T21:03:07.627Z,99451.33
2019-03-03T21:05:36.318Z,99457.82
2019-03-03T21:08:16.880Z,99473.66
2019-03-03T21:10:46.578Z,99481.88
2019-03-03T21:13:16.640Z,99471.31
2019-03-03T21:15:45.391Z,99472.77
2019-03-03T21:18:14.071Z,99483.11
2019-03-03T21:20:42.754Z,99489.17
2019-03-03T21:23:11.335Z,99473.47
2019-03-03T21:25:40.314Z,99474.14
2019-03-03T21:28:09.059Z,99428.05
2019-03-03T21:30:39.009Z,99495.84
2019-03-03T21:33:08.539Z,99459.87
2019-03-03T21:35:38.013Z,99445.64
2019-03-03T21:38:06.877Z,99465.30
2019-03-03T21:40:36.898Z,99458.39
2019-03-03T21:43:05.815Z,99434.82
2019-03-03T21:45:34.501Z,99444.36
2019-03-03T21:48:05.170Z,99452.47
2019-03-03T21:50:34.384Z,99441.11
2019-03-03T21:53:03.132Z,99428.48
2019-03-03T21:55:31.778Z,99422.05
2019-03-03T21:58:00.911Z,99421.84
2019-03-03T22:00:32.506Z,99426.05
2019-03-03T22:03:01.301Z,99416.78
2019-03-03T22:05:30.507Z,99423.03
2019-03-03T22:07:59.943Z,99392.43
2019-03-03T22:10:33.477Z,99387.83
2019-03-03T22:13:04.941Z,99394.52
2019-03-03T22:15:33.615Z,99394.36
2019-03-03T22:18:02.344Z,99402.83
2019-03-03T22:20:30.960Z,99399.89
2019-03-03T22:23:01.480Z,99389.77
2019-03-03T22:25:29.914Z,99401.20
2019-03-03T22:27:58.639Z,99392.36
2019-03-03T22:30:27.289Z,99386.13
2019-03-03T22:32:55.972Z,99378.34
2019-03-03T22:35:24.688Z,99357.42
2019-03-03T22:37:53.562Z,99336.95
2019-03-03T22:40:24.211Z,99313.75
2019-03-03T22:42:52.919Z,99316.53
2019-03-03T22:45:22.309Z,99297.78
2019-03-03T22:47:51.010Z,99307.73
2019-03-03T22:50:21.218Z,99284.19
2019-03-03T22:52:50.077Z,99284.19
2019-03-03T22:55:21.150Z,99290.70
2019-03-03T22:57:49.834Z,99291.97
2019-03-03T23:00:21.472Z,99270.38
2019-03-03T23:02:50.126Z,99244.76
2019-03-03T23:05:36.739Z,99254.73
2019-03-03T23:08:08.286Z,99259.00
2019-03-03T23:10:39.913Z,99256.95
2019-03-03T23:13:17.381Z,99275.66
2019-03-03T23:16:00.293Z,99278.45
2019-03-03T23:18:50.231Z,99268.97
2019-03-03T23:21:24.368Z,99257.72
2019-03-03T23:24:13.798Z,99261.80
2019-03-03T23:26:42.512Z,99235.84
2019-03-03T23:29:11.190Z,99246.48
2019-03-03T23:31:39.861Z,99239.61
2019-03-03T23:34:08.584Z,99232.70
2019-03-03T23:36:37.357Z,99216.98
2019-03-03T23:39:07.468Z,99250.72
2019-03-03T23:41:36.194Z,99218.44
2019-03-03T23:44:05.218Z,99229.38
2019-03-03T23:46:33.890Z,99191.00
2019-03-03T23:49:02.609Z,99210.16
2019-03-03T23:51:31.330Z,99253.28
2019-03-03T23:54:00.006Z,99240.34
2019-03-03T23:56:28.794Z,99223.20
2019-03-03T23:58:57.336Z,99227.95
